Time;durP1;ratioP1;P1;durP2;ratioP2;P2;SDS_P1;SDS_P2;PMS_P1;PMS_P2;Temp;Humidity;BMP_temperature;BMP_pressure;BME280_temperature;BME280_humidity;BME280_pressure;Samples;Min_cycle;Max_cycle;Signal;HPM_P1;HPM_P2
2023/06/27 00:01:27;;;;;;;7.13;5.70;;;;;;;-143.84;84.30;45092.88;5070662;28;20839;-57
2023/06/27 00:03:54;;;;;;;7.60;6.47;;;;;;;-143.84;84.26;45085.25;5070539;28;20445;-57
2023/06/27 00:06:21;;;;;;;6.10;5.57;;;;;;;-143.84;84.09;45089.06;5070450;28;20481;-58
2023/06/27 00:08:49;;;;;;;10.43;5.57;;;;;;;-143.84;84.12;45102.38;5070693;28;20492;-58
2023/06/27 00:11:17;;;;;;;10.50;5.47;;;;;;;-143.84;84.19;45085.25;5070562;28;20442;-57
2023/06/27 00:13:44;;;;;;;6.90;5.70;;;;;;;-143.84;84.37;45066.22;5070365;28;20454;-57
2023/06/27 00:16:13;;;;;;;7.90;5.20;;;;;;;-143.84;83.92;45094.78;5070169;28;20436;-57
2023/06/27 00:18:40;;;;;;;7.00;5.50;;;;;;;-143.84;84.10;45066.22;5070271;28;20445;-57
2023/06/27 00:21:08;;;;;;;6.43;5.80;;;;;;;-143.84;83.64;45064.31;5070185;28;20449;-57
2023/06/27 00:23:35;;;;;;;7.10;6.20;;;;;;;-143.84;83.35;45089.06;5070061;28;20488;-57
2023/06/27 00:26:03;;;;;;;7.50;5.57;;;;;;;-143.84;83.30;45081.44;5070042;28;20450;-57
2023/06/27 00:28:31;;;;;;;8.43;5.90;;;;;;;-143.84;83.09;45087.16;5070116;28;20439;-57
2023/06/27 00:30:58;;;;;;;19.20;5.73;;;;;;;-143.84;83.10;45089.06;5069821;28;20442;-57
2023/06/27 00:33:25;;;;;;;9.97;5.93;;;;;;;-143.84;83.32;45077.63;5070111;28;20445;-57
2023/06/27 00:35:52;;;;;;;7.77;5.20;;;;;;;-143.84;83.06;45094.78;5069883;28;20506;-57
2023/06/27 00:38:19;;;;;;;9.83;5.23;;;;;;;-143.84;82.97;45096.66;5069883;28;20437;-57
2023/06/27 00:40:47;;;;;;;8.97;5.90;;;;;;;-143.84;83.06;45108.09;5069681;28;20434;-57
2023/06/27 00:43:14;;;;;;;5.83;5.13;;;;;;;-143.84;83.35;45104.28;5070057;28;21081;-57
2023/06/27 00:45:42;;;;;;;12.70;6.07;;;;;;;-143.84;83.39;45125.22;5069823;28;20449;-57
2023/06/27 00:48:10;;;;;;;6.93;5.80;;;;;;;-143.84;83.25;45087.16;5069432;28;20480;-57
2023/06/27 00:50:37;;;;;;;8.37;5.93;;;;;;;-143.84;83.04;45056.69;5069358;28;20442;-57
2023/06/27 00:53:04;;;;;;;21.07;5.73;;;;;;;-143.84;83.12;45070.00;5069708;28;20437;-57
2023/06/27 00:55:32;;;;;;;10.23;5.83;;;;;;;-143.84;83.15;45056.69;5069720;28;20500;-57
2023/06/27 00:58:00;;;;;;;6.10;5.10;;;;;;;-143.84;82.85;45071.91;5069352;28;20449;-57
2023/06/27 01:00:27;;;;;;;6.40;5.77;;;;;;;-143.84;82.66;45108.09;5069397;28;20433;-57
2023/06/27 01:02:56;;;;;;;6.23;5.63;;;;;;;-143.84;82.38;45108.09;5069418;28;20525;-57
2023/06/27 01:05:23;;;;;;;7.13;6.43;;;;;;;-143.84;82.98;45094.78;5069241;28;20528;-57
2023/06/27 01:07:56;;;;;;;6.87;6.00;;;;;;;-143.84;82.47;45092.88;5069307;28;20481;-57
2023/06/27 01:10:30;;;;;;;6.33;5.50;;;;;;;-143.84;82.42;45075.72;5069170;28;20441;-57
2023/06/27 01:13:05;;;;;;;11.77;6.03;;;;;;;-143.84;82.43;45068.13;5068946;28;20437;-57
2023/06/27 01:15:33;;;;;;;10.43;6.23;;;;;;;-143.84;82.31;45089.06;5069236;28;20441;-57
2023/06/27 01:18:02;;;;;;;12.27;6.00;;;;;;;-143.84;82.19;45060.50;5069437;28;20441;-57
2023/06/27 01:20:32;;;;;;;7.50;5.80;;;;;;;-143.84;82.18;45129.03;5069472;28;20441;-57
2023/06/27 01:23:10;;;;;;;12.17;6.30;;;;;;;-143.84;82.21;45092.88;5068904;28;20457;-57
2023/06/27 01:25:38;;;;;;;7.60;5.97;;;;;;;-143.84;82.36;45081.44;5069100;28;20441;-57
2023/06/27 01:28:06;;;;;;;8.80;5.87;;;;;;;-143.84;82.37;45115.72;5068782;28;20485;-57
2023/06/27 01:30:34;;;;;;;10.37;5.90;;;;;;;-143.84;82.37;45108.09;5068900;28;20963;-57
2023/06/27 01:33:05;;;;;;;7.23;5.47;;;;;;;-143.84;82.22;45079.53;5068853;28;20450;-57
2023/06/27 01:35:35;;;;;;;8.40;5.77;;;;;;;-143.84;82.10;45100.47;5069127;28;20942;-57
2023/06/27 01:38:09;;;;;;;21.53;5.40;;;;;;;-143.84;82.10;45079.53;5068961;28;20506;-57
2023/06/27 01:40:39;;;;;;;11.30;5.87;;;;;;;-143.84;82.46;45087.16;5068975;28;20931;-57
2023/06/27 01:43:10;;;;;;;7.10;6.40;;;;;;;-143.84;82.24;45068.13;5068812;28;20442;-57
2023/06/27 01:45:39;;;;;;;7.10;6.00;;;;;;;-143.84;81.89;45090.97;5068839;28;20923;-57
2023/06/27 01:48:07;;;;;;;8.20;7.00;;;;;;;-143.84;81.87;45073.81;5069183;28;20478;-57
2023/06/27 01:50:35;;;;;;;7.80;6.37;;;;;;;-143.84;81.52;45098.56;5069357;28;20438;-57
2023/06/27 01:53:02;;;;;;;17.60;6.00;;;;;;;-143.84;81.72;45087.16;5068454;28;20479;-57
2023/06/27 01:55:29;;;;;;;6.33;5.73;;;;;;;-143.84;81.24;45098.56;5068105;28;20510;-57
2023/06/27 01:57:58;;;;;;;9.60;6.40;;;;;;;-143.84;81.56;45075.72;5068420;28;20915;-57
2023/06/27 02:00:26;;;;;;;7.90;5.80;;;;;;;-143.84;81.13;45083.34;5068490;28;20442;-57
2023/06/27 02:02:53;;;;;;;8.80;6.53;;;;;;;-143.84;81.58;45087.16;5071259;28;20958;-57
2023/06/27 02:05:20;;;;;;;11.63;6.20;;;;;;;-143.84;81.67;45100.47;5072282;28;20445;-57
2023/06/27 02:07:47;;;;;;;8.40;6.60;;;;;;;-143.84;81.77;45098.56;5072906;28;20891;-57
2023/06/27 02:10:14;;;;;;;8.37;5.50;;;;;;;-143.84;81.60;45110.00;5072617;28;20441;-57
2023/06/27 02:12:41;;;;;;;19.03;6.00;;;;;;;-143.84;81.58;45081.44;5072813;28;20508;-58
2023/06/27 02:15:10;;;;;;;8.10;6.07;;;;;;;-143.84;81.85;45085.25;5072617;28;20448;-57
2023/06/27 02:17:37;;;;;;;7.47;6.50;;;;;;;-143.84;81.67;45110.00;5072478;28;20513;-57
2023/06/27 02:20:06;;;;;;;6.73;6.13;;;;;;;-143.84;81.41;45104.28;5072417;28;20442;-57
2023/06/27 02:22:33;;;;;;;10.40;6.50;;;;;;;-143.84;81.32;45094.78;5072304;28;20582;-57
2023/06/27 02:25:00;;;;;;;8.43;6.17;;;;;;;-143.84;81.60;45079.53;5072427;28;20519;-57
2023/06/27 02:27:27;;;;;;;10.30;5.73;;;;;;;-143.84;81.31;45085.25;5072143;28;20905;-57
2023/06/27 02:29:54;;;;;;;9.83;6.33;;;;;;;-143.84;81.24;45087.16;5072536;28;20437;-57
2023/06/27 02:32:23;;;;;;;6.83;6.00;;;;;;;-143.84;81.37;45121.44;5072300;28;20487;-57
2023/06/27 02:34:50;;;;;;;7.10;6.10;;;;;;;-143.84;81.54;45100.47;5072368;28;20438;-57
2023/06/27 02:37:17;;;;;;;15.40;6.33;;;;;;;-143.84;81.22;45079.53;5072066;28;20437;-57
2023/06/27 02:39:44;;;;;;;9.57;6.37;;;;;;;-143.84;80.75;45100.47;5072152;28;20445;-57
2023/06/27 02:42:11;;;;;;;11.13;6.10;;;;;;;-143.84;80.59;45089.06;5072228;28;20448;-57
2023/06/27 02:44:38;;;;;;;10.77;6.40;;;;;;;-143.84;80.38;45083.34;5072384;28;20437;-57
2023/06/27 02:47:06;;;;;;;15.20;6.13;;;;;;;-143.84;79.99;45106.19;5071757;28;20492;-57
2023/06/27 02:49:34;;;;;;;11.43;6.07;;;;;;;-143.84;79.80;45108.09;5072203;28;20441;-57
2023/06/27 02:52:01;;;;;;;9.57;6.10;;;;;;;-143.84;79.18;45100.47;5071837;28;20448;-57
2023/06/27 02:54:28;;;;;;;8.07;5.83;;;;;;;-143.84;79.28;45075.72;5071648;28;20445;-57
2023/06/27 02:56:55;;;;;;;10.70;7.83;;;;;;;-143.84;79.58;45089.06;5071945;28;20437;-57
2023/06/27 02:59:23;;;;;;;11.50;7.33;;;;;;;-143.84;79.43;45106.19;5071767;28;20498;-57
2023/06/27 03:01:50;;;;;;;9.70;6.73;;;;;;;-143.84;79.25;45079.53;5071677;28;20448;-57
2023/06/27 03:04:21;;;;;;;7.20;6.43;;;;;;;-143.84;78.94;45090.97;5071684;28;20445;-57
2023/06/27 03:06:50;;;;;;;9.87;6.00;;;;;;;-143.84;78.71;45071.91;5071468;28;20927;-57
2023/06/27 03:09:19;;;;;;;6.50;5.73;;;;;;;-143.84;78.34;45094.78;5071290;28;20509;-57
2023/06/27 03:11:46;;;;;;;13.03;6.20;;;;;;;-143.84;77.85;45110.00;5071966;28;21220;-57
2023/06/27 03:14:17;;;;;;;11.03;5.87;;;;;;;-143.84;77.51;45100.47;5071834;28;20498;-57
2023/06/27 03:16:44;;;;;;;6.60;6.00;;;;;;;-143.84;76.69;45092.88;5071440;28;20452;-57
2023/06/27 03:19:11;;;;;;;5.47;5.07;;;;;;;-143.84;76.17;45100.47;5071493;28;20453;-57
2023/06/27 03:21:40;;;;;;;11.17;6.30;;;;;;;-143.84;76.07;45111.91;5071325;28;20992;-57
2023/06/27 03:24:10;;;;;;;9.33;6.17;;;;;;;-143.84;75.42;45090.97;5071114;28;21067;-57
2023/06/27 03:26:37;;;;;;;6.53;5.93;;;;;;;-143.84;75.14;45090.97;5071542;28;20441;-57
2023/06/27 03:29:04;;;;;;;6.40;5.73;;;;;;;-143.84;74.28;45098.56;5071448;28;20473;-57
2023/06/27 03:31:31;;;;;;;6.63;5.93;;;;;;;-143.84;73.83;45096.66;5071522;28;20445;-58
2023/06/27 03:33:59;;;;;;;12.00;5.80;;;;;;;-143.84;73.08;45085.25;5071234;28;20829;-58
2023/06/27 03:36:28;;;;;;;7.67;6.47;;;;;;;-143.84;70.90;45075.72;5071103;28;20446;-58
2023/06/27 03:38:56;;;;;;;7.00;5.50;;;;;;;-143.84;65.54;45081.44;5071085;28;20908;-57
2023/06/27 03:41:24;;;;;;;18.70;5.83;;;;;;;-143.84;61.14;45054.78;5071434;28;20445;-57
2023/06/27 03:43:52;;;;;;;7.63;5.83;;;;;;;-143.84;59.15;45049.06;5070870;28;20511;-57
2023/06/27 03:46:19;;;;;;;5.33;4.87;;;;;;;-143.84;56.54;45043.34;5071024;28;20451;-57
2023/06/27 03:48:47;;;;;;;9.90;5.40;;;;;;;-143.84;53.46;45071.91;5071173;28;21009;-57
2023/06/27 03:51:14;;;;;;;6.00;5.40;;;;;;;-143.84;51.66;45049.06;5070962;28;20452;-57
2023/06/27 03:53:41;;;;;;;8.00;5.37;;;;;;;-143.84;51.32;45049.06;5070915;28;20858;-57
2023/06/27 03:56:08;;;;;;;8.13;4.73;;;;;;;-143.84;51.10;45073.81;5070968;28;20443;-57
2023/06/27 03:58:36;;;;;;;7.37;4.73;;;;;;;-143.84;50.47;45024.31;5070855;28;20498;-58
2023/06/27 04:01:04;;;;;;;6.07;5.57;;;;;;;-143.84;49.94;45037.66;5070450;28;20443;-58
2023/06/27 04:03:31;;;;;;;5.30;4.70;;;;;;;-143.84;48.34;45022.41;5070750;28;20536;-57
2023/06/27 04:05:58;;;;;;;6.07;5.03;;;;;;;-143.84;48.67;45026.22;5070545;28;20445;-58
2023/06/27 04:08:25;;;;;;;5.47;4.70;;;;;;;-143.84;48.82;45037.66;5070611;28;20477;-58
2023/06/27 04:10:52;;;;;;;5.97;5.43;;;;;;;-143.84;48.71;45031.94;5066052;28;20514;-58
2023/06/27 04:13:19;;;;;;;7.80;5.07;;;;;;;-143.84;48.97;45033.84;5071307;28;20514;-58
2023/06/27 04:15:48;;;;;;;12.03;5.47;;;;;;;-143.84;48.78;45035.75;5069965;28;20442;-58
2023/06/27 04:18:15;;;;;;;6.10;5.50;;;;;;;-143.84;48.35;45030.03;5070053;28;20452;-58
2023/06/27 04:20:42;;;;;;;5.63;4.93;;;;;;;-143.84;47.97;45052.88;5070368;28;20546;-58
2023/06/27 04:23:09;;;;;;;7.20;4.47;;;;;;;-143.84;47.53;45037.66;5070003;28;20523;-58
2023/06/27 04:25:37;;;;;;;10.23;5.20;;;;;;;-143.84;46.53;45028.13;5063818;28;20526;-58
2023/06/27 04:28:05;;;;;;;6.73;4.73;;;;;;;-143.84;46.67;45001.47;5070254;28;20634;-58
2023/06/27 04:30:32;;;;;;;5.23;4.73;;;;;;;-143.84;46.17;45033.84;5070121;28;20443;-58
2023/06/27 04:33:02;;;;;;;8.10;5.20;;;;;;;-143.84;45.73;45026.22;5070037;28;20448;-58
2023/06/27 04:35:30;;;;;;;8.83;5.00;;;;;;;-143.84;45.69;45024.31;5069775;28;20446;-57
2023/06/27 04:37:57;;;;;;;6.80;5.37;;;;;;;-143.84;45.35;44991.94;5070203;28;20445;-58
2023/06/27 04:40:24;;;;;;;9.50;5.10;;;;;;;-143.84;45.33;45012.88;5070054;28;20438;-58
2023/06/27 04:42:51;;;;;;;7.43;4.90;;;;;;;-143.84;44.88;45022.41;5069744;28;20490;-58
2023/06/27 04:45:18;;;;;;;5.67;5.20;;;;;;;-143.84;45.01;45028.13;5069708;28;20453;-58
2023/06/27 04:47:45;;;;;;;10.10;5.17;;;;;;;-143.84;44.61;45022.41;5069502;28;21141;-58
2023/06/27 04:50:18;;;;;;;5.23;4.80;;;;;;;-143.84;44.08;44982.41;5069463;28;20870;-58
2023/06/27 04:52:45;;;;;;;8.13;4.37;;;;;;;-143.84;43.66;44999.56;5069492;28;20450;-57
2023/06/27 04:55:13;;;;;;;5.40;4.90;;;;;;;-143.84;43.91;44976.72;5069774;28;20475;-58
2023/06/27 04:57:40;;;;;;;10.07;4.77;;;;;;;-143.84;43.16;44984.31;5068976;28;20479;-58
2023/06/27 05:00:10;;;;;;;15.67;4.47;;;;;;;-143.84;42.51;44997.66;5049201;28;20445;-58
2023/06/27 05:02:37;;;;;;;4.77;4.17;;;;;;;-143.84;41.91;44986.22;5049546;28;21001;-58
2023/06/27 05:05:07;;;;;;;10.30;5.10;;;;;;;-143.84;41.73;44959.56;5049266;28;20446;-58
2023/06/27 05:07:36;;;;;;;5.37;4.87;;;;;;;-143.84;41.63;44959.56;5049652;28;20477;-58
2023/06/27 05:10:04;;;;;;;9.40;4.20;;;;;;;-143.84;40.87;44969.09;5049713;28;20450;-58
2023/06/27 05:12:31;;;;;;;7.73;4.83;;;;;;;-143.84;41.32;44957.66;5049354;28;20439;-58
2023/06/27 05:14:58;;;;;;;4.67;4.27;;;;;;;-143.84;40.20;44976.72;5049425;28;20438;-58
2023/06/27 05:17:25;;;;;;;5.90;4.50;;;;;;;-143.84;40.03;44988.13;5049592;28;21192;-58
2023/06/27 05:19:52;;;;;;;6.00;4.20;;;;;;;-143.84;38.98;44972.91;5049631;28;20619;-58
2023/06/27 05:22:19;;;;;;;4.23;3.83;;;;;;;-143.84;39.16;44946.25;5049452;28;20446;-58
2023/06/27 05:24:48;;;;;;;7.33;3.97;;;;;;;-143.84;38.72;44963.38;5049092;28;21228;-58
2023/06/27 05:27:15;;;;;;;5.23;3.93;;;;;;;-143.84;37.00;44931.00;5048969;28;20861;-58
2023/06/27 05:29:42;;;;;;;3.87;3.67;;;;;;;-143.84;36.77;44944.34;5049241;28;20485;-58
2023/06/27 05:32:09;;;;;;;5.00;3.00;;;;;;;-143.84;36.56;44927.19;5048857;28;20447;-58
2023/06/27 05:34:36;;;;;;;6.03;3.70;;;;;;;-143.84;37.01;44908.16;5048986;28;20934;-58
2023/06/27 05:37:03;;;;;;;5.83;4.30;;;;;;;-143.84;36.85;44913.88;5047980;28;20438;-58
2023/06/27 05:39:32;;;;;;;4.83;3.43;;;;;;;-143.84;36.74;44931.00;5049068;28;20442;-58
2023/06/27 05:42:01;;;;;;;4.47;4.03;;;;;;;-143.84;36.79;44923.41;5049160;28;20535;-58
2023/06/27 05:44:28;;;;;;;4.83;4.33;;;;;;;-143.84;35.76;44942.44;5049066;28;20955;-58
2023/06/27 05:46:55;;;;;;;3.53;3.23;;;;;;;-143.84;35.60;44915.78;5049087;28;20438;-58
2023/06/27 05:49:22;;;;;;;5.93;3.33;;;;;;;-143.84;35.87;44908.16;5048516;28;20478;-58
2023/06/27 05:51:49;;;;;;;4.13;3.80;;;;;;;-143.84;35.33;44894.84;5048741;28;20956;-58
2023/06/27 05:54:16;;;;;;;5.70;3.50;;;;;;;-143.84;35.04;44889.13;5048745;28;20576;-58
2023/06/27 05:56:43;;;;;;;4.10;3.27;;;;;;;-143.84;34.61;44862.47;5048718;28;20430;-58
2023/06/27 05:59:12;;;;;;;3.30;3.10;;;;;;;-143.84;32.68;44875.78;5048888;28;20472;-58
2023/06/27 06:01:39;;;;;;;5.07;3.37;;;;;;;-143.84;32.32;44866.28;5048829;28;20450;-58
2023/06/27 06:04:06;;;;;;;3.90;3.10;;;;;;;-143.84;32.20;44854.84;5048578;28;20434;-58
2023/06/27 06:06:37;;;;;;;6.43;3.73;;;;;;;-143.84;32.10;44854.84;5048509;28;20442;-58
2023/06/27 06:09:05;;;;;;;7.27;3.10;;;;;;;-143.84;31.65;44854.84;5048322;28;20493;-58
2023/06/27 06:11:34;;;;;;;3.73;2.83;;;;;;;-143.84;31.53;44851.03;5048780;28;20507;-58
2023/06/27 06:14:01;;;;;;;4.33;2.90;;;;;;;-143.84;31.82;44843.44;5054673;28;20942;-58
2023/06/27 06:16:32;;;;;;;3.20;2.67;;;;;;;-143.84;30.92;44852.94;5084497;28;20468;-58
2023/06/27 06:18:59;;;;;;;12.60;3.33;;;;;;;-143.84;30.54;44847.22;5088571;28;20436;-58
2023/06/27 06:21:27;;;;;;;3.40;2.90;;;;;;;-143.84;30.67;44854.84;5088620;28;20944;-58
2023/06/27 06:23:54;;;;;;;4.20;3.00;;;;;;;-143.84;29.26;44826.28;5088559;28;20537;-58
2023/06/27 06:26:21;;;;;;;4.03;2.80;;;;;;;-143.84;29.64;44824.38;5088755;28;20490;-58
2023/06/27 06:28:48;;;;;;;3.10;2.80;;;;;;;-143.84;30.44;44841.53;5089046;28;20503;-58
2023/06/27 06:31:16;;;;;;;3.73;2.57;;;;;;;-143.84;29.38;44801.53;5088591;28;20433;-58
2023/06/27 06:33:45;;;;;;;3.60;3.07;;;;;;;-143.84;29.98;44824.38;5088937;28;21138;-58
2023/06/27 06:36:13;;;;;;;5.73;3.03;;;;;;;-143.84;29.53;44807.25;5088545;28;20846;-58
2023/06/27 06:38:40;;;;;;;3.00;2.60;;;;;;;-143.84;29.16;44824.38;5088476;28;20523;-58
2023/06/27 06:41:07;;;;;;;2.60;2.40;;;;;;;-143.84;28.54;44809.16;5088711;28;20432;-58
2023/06/27 06:43:34;;;;;;;3.97;2.40;;;;;;;-143.84;29.16;44799.63;5076595;28;20436;-58
2023/06/27 06:46:01;;;;;;;5.17;2.60;;;;;;;-143.84;28.89;44788.22;5068057;28;20441;-58
2023/06/27 06:48:29;;;;;;;3.00;2.70;;;;;;;-143.84;28.65;44812.97;5070572;28;20534;-58
2023/06/27 06:50:57;;;;;;;3.00;2.80;;;;;;;-143.84;27.83;44788.22;5072259;28;20927;-58
2023/06/27 06:53:24;;;;;;;4.73;2.83;;;;;;;-143.84;28.26;44822.47;5072229;28;20566;-58
2023/06/27 06:55:51;;;;;;;3.53;2.50;;;;;;;-143.84;28.33;44784.41;5071686;28;20446;-58
2023/06/27 06:58:18;;;;;;;4.63;2.67;;;;;;;-143.84;28.79;44803.44;5071929;28;20495;-58
2023/06/27 07:00:46;;;;;;;3.57;2.37;;;;;;;-143.84;28.61;44790.13;5071544;28;20487;-58
2023/06/27 07:03:13;;;;;;;3.17;2.70;;;;;;;-143.84;28.17;44788.22;5071759;28;20984;-58
2023/06/27 07:05:41;;;;;;;2.93;2.73;;;;;;;-143.84;28.45;44837.72;5071807;28;20514;-58
2023/06/27 07:08:10;;;;;;;7.33;2.80;;;;;;;-143.84;29.83;44816.78;5071871;28;20874;-58
2023/06/27 07:10:37;;;;;;;2.97;2.67;;;;;;;-143.84;29.15;44795.81;5071865;28;20433;-58
2023/06/27 07:13:05;;;;;;;4.00;3.60;;;;;;;-143.84;28.65;44854.84;5071431;28;20491;-58
2023/06/27 07:15:33;;;;;;;7.07;3.90;;;;;;;-143.84;28.99;44828.19;5071633;28;20513;-58
2023/06/27 07:18:00;;;;;;;7.70;2.33;;;;;;;-143.84;29.10;44843.44;5071727;28;20511;-58
2023/06/27 07:20:28;;;;;;;2.33;2.23;;;;;;;-143.84;28.20;44803.44;5071659;28;20923;-58
2023/06/27 07:22:55;;;;;;;3.13;2.83;;;;;;;-143.84;27.55;44790.13;5071622;28;20457;-59
2023/06/27 07:25:24;;;;;;;2.40;2.20;;;;;;;-143.84;27.14;44797.72;5071549;28;20433;-58
2023/06/27 07:27:51;;;;;;;2.43;2.30;;;;;;;-143.84;27.71;44837.72;5071068;28;20985;-58
2023/06/27 07:30:18;;;;;;;2.80;2.43;;;;;;;-143.84;27.73;44811.06;5071234;28;20982;-58
2023/06/27 07:32:45;;;;;;;3.23;2.93;;;;;;;-143.84;27.61;44803.44;5071409;28;20445;-59
2023/06/27 07:35:12;;;;;;;4.33;2.73;;;;;;;-143.84;27.59;44824.38;5071407;28;20464;-58
2023/06/27 07:37:39;;;;;;;6.47;2.63;;;;;;;-143.84;27.95;44784.41;5071141;28;20460;-58
2023/06/27 07:40:08;;;;;;;2.67;2.47;;;;;;;-143.84;27.17;44828.19;5071293;28;20441;-58
2023/06/27 07:42:37;;;;;;;7.33;2.70;;;;;;;-143.84;28.43;44809.16;5071017;28;20508;-59
2023/06/27 07:45:04;;;;;;;4.63;2.53;;;;;;;-143.84;27.71;44795.81;5071098;28;20433;-58
2023/06/27 07:47:31;;;;;;;3.30;2.50;;;;;;;-143.84;27.40;44801.53;5070999;28;20518;-59
2023/06/27 07:49:58;;;;;;;7.00;2.97;;;;;;;-143.84;28.79;44805.34;5070725;28;20530;-58
2023/06/27 07:52:26;;;;;;;4.13;3.73;;;;;;;-143.84;27.87;44816.78;5070642;28;20430;-59
2023/06/27 07:54:53;;;;;;;3.10;2.67;;;;;;;-143.84;27.77;44807.25;5070823;28;20985;-58
2023/06/27 07:57:20;;;;;;;11.60;2.73;;;;;;;-143.84;27.37;44782.50;5070839;28;20437;-58
2023/06/27 07:59:48;;;;;;;4.70;3.67;;;;;;;-143.84;28.94;44803.44;5069694;28;20441;-58
2023/06/27 08:02:15;;;;;;;3.90;3.50;;;;;;;-143.84;29.11;44820.56;5070747;28;20446;-58
2023/06/27 08:04:43;;;;;;;5.10;3.40;;;;;;;-143.84;30.47;44801.53;5070682;28;20440;-58
2023/06/27 08:07:10;;;;;;;7.07;3.10;;;;;;;-143.84;29.00;44795.81;5070614;28;20442;-59
2023/06/27 08:09:38;;;;;;;8.60;3.90;;;;;;;-143.84;28.83;44801.53;5070680;28;20485;-58
2023/06/27 08:12:06;;;;;;;4.13;3.00;;;;;;;-143.84;29.10;44824.38;5070786;28;21224;-58
2023/06/27 08:14:33;;;;;;;3.70;3.40;;;;;;;-143.84;29.70;44807.25;5070782;28;20507;-58
2023/06/27 08:17:01;;;;;;;3.10;2.90;;;;;;;-143.84;29.58;44837.72;5070621;28;20476;-58
2023/06/27 08:19:29;;;;;;;3.50;3.00;;;;;;;-143.84;29.22;44845.31;5070403;28;20446;-58
2023/06/27 08:21:56;;;;;;;5.20;3.20;;;;;;;-143.84;29.34;44835.81;5070324;28;20441;-58
2023/06/27 08:24:23;;;;;;;3.27;3.07;;;;;;;-143.84;30.82;44824.38;5070171;28;20538;-58
2023/06/27 08:26:52;;;;;;;4.70;3.40;;;;;;;-143.84;29.95;44849.13;5070012;28;20449;-58
2023/06/27 08:29:19;;;;;;;3.20;2.40;;;;;;;-143.84;28.93;44852.94;5070051;28;20488;-58
2023/06/27 08:31:48;;;;;;;3.30;3.00;;;;;;;-143.84;29.13;44870.09;5070211;28;20476;-58
2023/06/27 08:34:16;;;;;;;3.47;2.97;;;;;;;-143.84;29.84;44860.56;5070115;28;20441;-58
2023/06/27 08:36:43;;;;;;;9.60;3.40;;;;;;;-143.84;29.67;44854.84;5070153;28;20518;-58
2023/06/27 08:39:10;;;;;;;3.50;2.80;;;;;;;-143.84;29.60;44856.75;5069746;28;20430;-58
2023/06/27 08:41:37;;;;;;;3.17;2.97;;;;;;;-143.84;29.42;44852.94;5070066;28;21220;-58
2023/06/27 08:44:05;;;;;;;6.77;3.30;;;;;;;-143.84;29.84;44852.94;5069674;28;20467;-57
2023/06/27 08:46:33;;;;;;;6.27;3.67;;;;;;;-143.84;29.24;44849.13;5070075;28;20433;-58
2023/06/27 08:49:03;;;;;;;5.63;2.73;;;;;;;-143.84;29.00;44856.75;5069783;28;20865;-58
2023/06/27 08:51:32;;;;;;;5.53;3.43;;;;;;;-143.84;30.11;44887.22;5069817;28;20421;-58
2023/06/27 08:54:08;;;;;;;13.67;3.00;;;;;;;-143.84;30.21;44856.75;5069670;28;20452;-58
2023/06/27 08:56:38;;;;;;;11.87;3.03;;;;;;;-143.84;30.61;44856.75;5069703;28;20502;-58
2023/06/27 08:59:11;;;;;;;6.63;3.20;;;;;;;-143.84;30.41;44870.09;5069745;28;20472;-58
2023/06/27 09:01:39;;;;;;;3.97;3.10;;;;;;;-143.84;32.38;44875.78;5069271;28;20434;-58
2023/06/27 09:04:06;;;;;;;4.43;3.00;;;;;;;-143.84;30.26;44900.53;5069692;28;20438;-59
2023/06/27 09:06:34;;;;;;;4.13;3.20;;;;;;;-143.84;30.00;44866.28;5069330;28;20495;-58
2023/06/27 09:09:02;;;;;;;3.63;3.03;;;;;;;-143.84;30.67;44883.41;5069325;28;20445;-58
2023/06/27 09:11:30;;;;;;;4.47;3.67;;;;;;;-143.84;31.18;44885.31;5068955;28;20978;-58
2023/06/27 09:13:57;;;;;;;4.30;2.60;;;;;;;-143.84;30.05;44875.78;5069225;28;20437;-58
2023/06/27 09:16:24;;;;;;;4.87;3.10;;;;;;;-143.84;29.12;44885.31;5069183;28;20515;-58
2023/06/27 09:18:51;;;;;;;13.50;4.40;;;;;;;-143.84;30.35;44885.31;5069345;28;20430;-58
2023/06/27 09:21:19;;;;;;;3.40;3.20;;;;;;;-143.84;29.84;44902.44;5069455;28;20955;-58
2023/06/27 09:23:49;;;;;;;5.10;2.63;;;;;;;-143.84;30.70;44868.19;5069025;28;20600;-58
2023/06/27 09:26:16;;;;;;;3.60;3.40;;;;;;;-143.84;29.17;44873.88;5069137;28;20511;-58
2023/06/27 09:28:47;;;;;;;10.27;2.57;;;;;;;-143.84;30.58;44862.47;5069174;28;20441;-58
2023/06/27 09:31:17;;;;;;;3.40;2.70;;;;;;;-143.84;30.23;44896.75;5068770;28;20481;-58
2023/06/27 09:33:44;;;;;;;2.43;2.23;;;;;;;-143.84;29.43;44885.31;5069010;28;20503;-58
2023/06/27 09:36:12;;;;;;;3.30;2.50;;;;;;;-143.84;29.18;44913.88;5068852;28;20442;-58
2023/06/27 09:38:39;;;;;;;3.30;2.47;;;;;;;-143.84;29.30;44906.25;5069026;28;20996;-58
2023/06/27 09:41:08;;;;;;;3.00;2.80;;;;;;;-143.84;30.27;44894.84;5068682;28;20434;-58
2023/06/27 09:43:36;;;;;;;3.03;2.77;;;;;;;-143.84;30.98;44892.94;5068874;28;20960;-58
2023/06/27 09:46:05;;;;;;;3.00;1.97;;;;;;;-143.84;30.60;44902.44;5068782;28;20434;-57
2023/06/27 09:48:32;;;;;;;3.87;2.83;;;;;;;-143.84;31.65;44904.34;5068735;28;20860;-58
2023/06/27 09:51:01;;;;;;;4.80;2.47;;;;;;;-143.84;30.60;44902.44;5068728;28;20477;-58
2023/06/27 09:53:30;;;;;;;2.83;2.60;;;;;;;-143.84;31.15;44896.75;5068714;28;20444;-58
2023/06/27 09:55:58;;;;;;;3.70;2.40;;;;;;;-143.84;30.80;44881.50;5068657;28;20447;-58
2023/06/27 09:58:31;;;;;;;2.97;2.77;;;;;;;-143.84;29.98;44923.41;5068834;28;20528;-58
2023/06/27 10:01:07;;;;;;;3.13;2.83;;;;;;;-143.84;30.02;44917.69;5068597;28;20511;-58
2023/06/27 10:03:36;;;;;;;4.40;2.50;;;;;;;-143.84;31.46;44917.69;5068744;28;20499;-57
2023/06/27 10:06:03;;;;;;;8.67;2.77;;;;;;;-143.84;31.16;44900.53;5068720;28;20434;-58
2023/06/27 10:08:31;;;;;;;3.83;3.00;;;;;;;-143.84;31.29;44910.06;5068650;28;20437;-58
2023/06/27 10:10:58;;;;;;;3.27;3.07;;;;;;;-143.84;33.18;44931.00;5068694;28;20886;-58
2023/06/27 10:13:25;;;;;;;4.43;2.67;;;;;;;-143.84;32.37;44919.59;5068853;28;20819;-57
2023/06/27 10:15:54;;;;;;;3.63;3.13;;;;;;;-143.84;31.69;44934.81;5068486;28;20436;-58
2023/06/27 10:18:22;;;;;;;5.10;3.37;;;;;;;-143.84;32.74;44931.00;5068393;28;20446;-57
2023/06/27 10:20:50;;;;;;;7.50;2.93;;;;;;;-143.84;32.37;44919.59;5068431;28;20441;-57
2023/06/27 10:23:17;;;;;;;5.10;2.67;;;;;;;-143.84;32.54;44913.88;5070620;28;20481;-57
2023/06/27 10:25:45;;;;;;;2.60;2.40;;;;;;;-143.84;32.30;44910.06;5072561;28;20437;-57
2023/06/27 10:28:15;;;;;;;4.70;3.07;;;;;;;-143.84;34.27;44944.34;5072472;28;20923;-58
2023/06/27 10:30:46;;;;;;;2.53;2.43;;;;;;;-143.84;32.52;44929.09;5072502;28;20998;-57
2023/06/27 10:33:27;;;;;;;3.70;3.07;;;;;;;-143.84;33.85;44932.91;5072101;28;20503;-58
2023/06/27 10:35:58;;;;;;;4.53;2.90;;;;;;;-143.84;34.99;44932.91;5072286;28;20507;-58
2023/06/27 10:38:34;;;;;;;3.47;3.17;;;;;;;-143.84;34.96;44929.09;5071962;28;20433;-57
2023/06/27 10:41:23;;;;;;;8.73;3.10;;;;;;;-143.84;34.75;44927.19;5072238;28;20479;-57
2023/06/27 10:43:51;;;;;;;3.80;2.90;;;;;;;-143.84;35.97;44936.72;5072294;28;21307;-57
2023/06/27 10:46:20;;;;;;;9.53;3.37;;;;;;;-143.84;35.88;44910.06;5071991;28;21013;-57
2023/06/27 10:48:50;;;;;;;3.93;3.13;;;;;;;-143.84;35.16;44940.53;5072254;28;21012;-57
2023/06/27 10:51:19;;;;;;;6.70;3.67;;;;;;;-143.84;35.99;44913.88;5071930;28;20485;-57
2023/06/27 10:54:14;;;;;;;4.60;2.83;;;;;;;-143.84;32.45;44902.44;5071985;28;21386;-58
2023/06/27 10:56:43;;;;;;;11.63;3.23;;;;;;;-143.84;35.13;44934.81;5072191;28;21157;-58
2023/06/27 10:59:11;;;;;;;3.40;3.03;;;;;;;-143.84;36.82;44925.31;5071929;28;20449;-58
2023/06/27 11:01:43;;;;;;;9.17;2.90;;;;;;;-143.84;35.31;44955.75;5071753;28;20444;-58
2023/06/27 11:04:18;;;;;;;3.43;2.87;;;;;;;-143.84;36.12;44953.88;5071794;28;20447;-58
2023/06/27 11:06:46;;;;;;;3.70;3.40;;;;;;;-143.84;37.39;44936.72;5071553;28;20452;-57
2023/06/27 11:09:15;;;;;;;4.77;3.00;;;;;;;-143.84;37.33;44932.91;5071530;28;20445;-57
2023/06/27 11:11:42;;;;;;;6.20;3.30;;;;;;;-143.84;36.73;44915.78;5071548;28;20578;-57
2023/06/27 11:14:11;;;;;;;3.70;3.50;;;;;;;-143.84;37.33;44948.16;5071707;28;20498;-57
2023/06/27 11:16:38;;;;;;;6.70;3.20;;;;;;;-143.84;36.55;44919.59;5071620;28;20794;-57
2023/06/27 11:19:05;;;;;;;7.27;3.27;;;;;;;-143.84;37.62;44940.53;5071707;28;21049;-57
2023/06/27 11:21:34;;;;;;;12.43;3.20;;;;;;;-143.84;36.93;44923.41;5071377;28;20445;-58